createdAt,value
2023-05-12T00:00:37.389Z,0.17
2023-05-12T00:03:05.094Z,0.20
2023-05-12T00:05:32.989Z,0.40
2023-05-12T00:08:02.261Z,0.40
2023-05-12T00:10:30.034Z,0.50
2023-05-12T00:12:58.172Z,0.20
2023-05-12T00:15:26.059Z,0.40
2023-05-12T00:17:53.836Z,0.40
2023-05-12T00:20:21.997Z,0.40
2023-05-12T00:22:49.752Z,0.37
2023-05-12T00:25:19.188Z,0.30
2023-05-12T00:27:46.847Z,0.50
2023-05-12T00:30:15.482Z,0.27
2023-05-12T00:32:43.135Z,0.30
2023-05-12T00:35:11.342Z,0.30
2023-05-12T00:37:38.924Z,0.53
2023-05-12T00:40:07.951Z,0.40
2023-05-12T00:42:37.340Z,1.17
2023-05-12T00:45:06.594Z,0.50
2023-05-12T00:47:34.908Z,0.30
2023-05-12T00:50:04.378Z,0.53
2023-05-12T00:52:32.469Z,0.23
2023-05-12T00:55:01.645Z,0.63
2023-05-12T00:57:29.861Z,0.30
2023-05-12T00:59:59.916Z,0.40
2023-05-12T01:02:28.023Z,0.40
2023-05-12T01:04:57.863Z,0.70
2023-05-12T01:07:27.331Z,0.70
2023-05-12T01:09:56.546Z,0.40
2023-05-12T01:12:25.845Z,0.77
2023-05-12T01:14:55.580Z,0.70
2023-05-12T01:17:30.918Z,0.60
2023-05-12T01:20:02.296Z,0.40
2023-05-12T01:22:32.048Z,0.57
2023-05-12T01:25:03.635Z,0.67
2023-05-12T01:27:34.901Z,0.63
2023-05-12T01:30:05.868Z,0.70
2023-05-12T01:32:36.646Z,1.33
2023-05-12T01:35:05.664Z,0.87
2023-05-12T01:37:35.101Z,0.53
2023-05-12T01:40:06.091Z,0.70
2023-05-12T01:42:35.123Z,0.73
2023-05-12T01:45:03.125Z,0.80
2023-05-12T01:47:31.770Z,1.10
2023-05-12T01:50:10.991Z,0.90
2023-05-12T01:52:39.364Z,1.10
2023-05-12T01:55:11.166Z,0.97
2023-05-12T01:57:51.648Z,0.90
2023-05-12T02:00:21.949Z,0.70
2023-05-12T02:02:52.245Z,0.53
2023-05-12T02:05:20.541Z,0.87
2023-05-12T02:07:50.661Z,0.63
2023-05-12T02:10:19.324Z,0.83
2023-05-12T02:12:47.175Z,1.07
2023-05-12T02:15:16.370Z,0.80
2023-05-12T02:17:53.908Z,0.60
2023-05-12T02:20:22.856Z,1.07
2023-05-12T02:22:51.211Z,0.73
2023-05-12T02:25:19.088Z,0.63
2023-05-12T02:27:48.221Z,0.73
2023-05-12T02:30:19.340Z,0.50
2023-05-12T02:32:47.932Z,0.87
2023-05-12T02:35:15.950Z,1.23
2023-05-12T02:37:43.880Z,1.67
2023-05-12T02:40:12.173Z,1.10
2023-05-12T02:42:41.401Z,1.13
2023-05-12T02:45:10.150Z,0.97
2023-05-12T02:47:39.214Z,0.60
2023-05-12T02:50:09.125Z,0.83
2023-05-12T02:52:37.189Z,0.50
2023-05-12T02:55:05.559Z,0.90
2023-05-12T02:57:34.334Z,0.60
2023-05-12T03:00:04.501Z,0.83
2023-05-12T03:02:33.968Z,0.80
2023-05-12T03:05:03.042Z,0.70
2023-05-12T03:07:31.124Z,0.80
2023-05-12T03:09:59.930Z,1.27
2023-05-12T03:12:29.233Z,0.70
2023-05-12T03:14:57.126Z,1.23
2023-05-12T03:17:24.758Z,2.03
2023-05-12T03:19:52.765Z,2.87
2023-05-12T03:22:21.743Z,1.83
2023-05-12T03:24:50.286Z,1.67
2023-05-12T03:27:18.257Z,2.43
2023-05-12T03:29:45.892Z,2.27
2023-05-12T03:32:13.830Z,2.80
2023-05-12T03:34:41.503Z,2.23
2023-05-12T03:37:09.507Z,2.80
2023-05-12T03:39:38.779Z,2.20
2023-05-12T03:42:07.374Z,3.50
2023-05-12T03:44:35.047Z,3.00
2023-05-12T03:47:02.756Z,2.70
2023-05-12T03:49:31.090Z,3.43
2023-05-12T03:51:58.977Z,3.70
2023-05-12T03:54:26.937Z,3.90
2023-05-12T03:56:55.933Z,3.70
2023-05-12T03:59:23.931Z,3.13
2023-05-12T04:01:53.594Z,3.13
2023-05-12T04:04:21.403Z,3.40
2023-05-12T04:06:49.476Z,2.37
2023-05-12T04:09:17.250Z,2.83
2023-05-12T04:11:45.255Z,3.60
2023-05-12T04:14:14.221Z,4.00
2023-05-12T04:16:42.279Z,2.50
2023-05-12T04:19:10.000Z,2.27
2023-05-12T04:21:38.565Z,2.50
2023-05-12T04:24:06.636Z,2.93
2023-05-12T04:26:37.094Z,2.10
2023-05-12T04:29:05.067Z,2.13
2023-05-12T04:31:34.584Z,2.50
2023-05-12T04:34:04.204Z,2.13
2023-05-12T04:36:33.657Z,2.73
2023-05-12T04:39:02.120Z,4.07
2023-05-12T04:41:30.160Z,4.47
2023-05-12T04:44:00.942Z,2.97
2023-05-12T04:46:29.296Z,2.97
2023-05-12T04:48:58.443Z,3.00
2023-05-12T04:51:26.830Z,2.43
2023-05-12T04:53:54.440Z,2.80
2023-05-12T04:56:22.676Z,2.73
2023-05-12T04:58:50.909Z,2.77
2023-05-12T05:01:18.998Z,3.50
2023-05-12T05:03:46.813Z,2.20
2023-05-12T05:06:15.904Z,3.47
2023-05-12T05:08:43.749Z,3.53
2023-05-12T05:11:11.369Z,2.40
2023-05-12T05:13:39.346Z,2.60
2023-05-12T05:16:07.735Z,2.33
2023-05-12T05:18:36.129Z,2.77
2023-05-12T05:21:03.939Z,2.67
2023-05-12T05:23:32.903Z,2.60
2023-05-12T05:26:00.496Z,2.37
2023-05-12T05:28:28.525Z,2.43
2023-05-12T05:30:56.186Z,2.47
2023-05-12T05:33:24.098Z,3.73
2023-05-12T05:35:52.257Z,2.83
2023-05-12T05:38:20.400Z,3.47
2023-05-12T05:40:54.122Z,3.27
2023-05-12T05:43:23.491Z,2.07
2023-05-12T05:45:51.619Z,2.80
2023-05-12T05:48:21.776Z,2.43
2023-05-12T05:50:51.604Z,2.13
2023-05-12T05:53:19.540Z,3.33
2023-05-12T05:55:48.896Z,2.30
2023-05-12T05:58:18.296Z,2.40
2023-05-12T06:00:46.970Z,2.63
2023-05-12T06:03:14.786Z,2.67
2023-05-12T06:05:44.067Z,2.87
2023-05-12T06:08:13.343Z,2.23
2023-05-12T06:10:42.077Z,1.93
2023-05-12T06:13:09.963Z,2.00
2023-05-12T06:15:39.376Z,3.03
2023-05-12T06:18:07.107Z,2.17
2023-05-12T06:20:34.839Z,2.20
2023-05-12T06:23:03.126Z,2.93
2023-05-12T06:25:33.000Z,3.57
2023-05-12T06:28:01.908Z,2.33
2023-05-12T06:30:29.600Z,2.53
2023-05-12T06:32:59.487Z,2.73
2023-05-12T06:35:27.355Z,2.17
2023-05-12T06:37:55.079Z,1.53
2023-05-12T06:40:22.653Z,2.60
2023-05-12T06:42:50.377Z,2.47
2023-05-12T06:45:21.331Z,1.60
2023-05-12T06:47:49.513Z,2.17
2023-05-12T06:50:18.680Z,2.53
2023-05-12T06:52:46.973Z,1.83
2023-05-12T06:55:19.740Z,1.60
2023-05-12T06:57:47.999Z,2.07
2023-05-12T07:00:16.433Z,1.57
2023-05-12T07:02:44.081Z,1.43
2023-05-12T07:05:12.026Z,1.40
2023-05-12T07:07:41.427Z,0.97
2023-05-12T07:10:10.308Z,1.60
2023-05-12T07:12:38.384Z,2.07
2023-05-12T07:15:07.176Z,1.77
2023-05-12T07:17:34.885Z,0.93
2023-05-12T07:20:04.768Z,1.33
2023-05-12T07:22:33.229Z,1.23
2023-05-12T07:25:02.308Z,1.97
2023-05-12T07:27:30.558Z,1.27
2023-05-12T07:29:58.403Z,1.97
2023-05-12T07:32:27.016Z,2.00
2023-05-12T07:34:54.783Z,1.80
2023-05-12T07:37:22.922Z,1.60
2023-05-12T07:39:50.716Z,2.00
2023-05-12T07:42:19.736Z,1.47
2023-05-12T07:44:47.336Z,2.03
2023-05-12T07:47:15.117Z,2.47
2023-05-12T07:49:44.296Z,2.03
2023-05-12T07:52:11.942Z,1.17
2023-05-12T07:54:39.523Z,1.70
2023-05-12T07:57:07.120Z,1.33
2023-05-12T07:59:36.031Z,1.83
2023-05-12T08:02:03.940Z,2.10
2023-05-12T08:04:31.694Z,1.90
2023-05-12T08:06:59.561Z,1.53
2023-05-12T08:09:27.151Z,1.70
2023-05-12T08:11:54.899Z,1.57
2023-05-12T08:14:22.821Z,1.73
2023-05-12T08:16:51.983Z,2.00
2023-05-12T08:19:19.724Z,1.73
2023-05-12T08:21:47.313Z,1.57
2023-05-12T08:24:14.880Z,2.77
2023-05-12T08:26:43.046Z,1.40
2023-05-12T08:29:10.694Z,1.50
2023-05-12T08:31:39.737Z,1.83
2023-05-12T08:34:10.934Z,2.80
2023-05-12T08:36:39.152Z,2.13
2023-05-12T08:39:06.882Z,1.50
2023-05-12T08:41:43.506Z,2.03
2023-05-12T08:44:12.395Z,1.97
2023-05-12T08:46:40.665Z,3.13
2023-05-12T08:49:15.714Z,1.53
2023-05-12T08:51:49.940Z,1.73
2023-05-12T08:54:25.822Z,1.50
2023-05-12T08:59:26.075Z,2.13
2023-05-12T09:01:55.896Z,2.07
2023-05-12T09:04:24.984Z,2.30
2023-05-12T09:06:55.572Z,1.30
2023-05-12T09:09:25.960Z,1.73
2023-05-12T09:11:57.828Z,2.57
2023-05-12T09:14:26.994Z,1.97
2023-05-12T09:16:59.636Z,1.60
2023-05-12T09:19:29.077Z,1.77
2023-05-12T09:21:56.879Z,3.17
2023-05-12T09:24:35.088Z,2.57
2023-05-12T09:27:02.719Z,2.83
2023-05-12T09:29:32.416Z,2.83
2023-05-12T09:32:03.349Z,2.60
2023-05-12T09:34:35.652Z,3.40
2023-05-12T09:37:06.430Z,3.20
2023-05-12T09:39:34.657Z,2.10
2023-05-12T09:42:02.446Z,2.00
2023-05-12T09:44:31.085Z,1.73
2023-05-12T09:47:07.128Z,2.03
2023-05-12T09:49:36.361Z,2.20
2023-05-12T09:52:05.384Z,2.57
2023-05-12T09:54:34.319Z,2.20
2023-05-12T09:57:04.851Z,1.70
2023-05-12T09:59:34.094Z,2.23
2023-05-12T10:02:04.617Z,2.57
2023-05-12T10:04:39.286Z,2.17
2023-05-12T10:07:11.503Z,1.40
2023-05-12T10:09:42.757Z,1.63
2023-05-12T10:12:11.175Z,2.40
2023-05-12T10:14:38.999Z,2.00
2023-05-12T10:17:07.301Z,2.80
2023-05-12T10:19:36.526Z,1.90
2023-05-12T10:22:06.748Z,1.53
2023-05-12T10:24:36.561Z,1.97
2023-05-12T10:27:06.433Z,1.70
2023-05-12T10:29:34.605Z,2.17
2023-05-12T10:32:02.567Z,1.20
2023-05-12T10:34:35.517Z,2.20
2023-05-12T10:37:08.145Z,1.73
2023-05-12T10:39:37.895Z,2.00
2023-05-12T10:42:08.307Z,1.53
2023-05-12T10:44:36.292Z,2.10
2023-05-12T10:47:14.106Z,1.30
2023-05-12T10:49:42.192Z,1.20
2023-05-12T10:52:12.341Z,1.20
2023-05-12T10:54:44.434Z,1.40
2023-05-12T10:57:18.929Z,1.00
2023-05-12T10:59:51.254Z,1.33
2023-05-12T11:02:22.078Z,0.90
2023-05-12T11:04:53.095Z,1.03
2023-05-12T11:07:24.251Z,1.27
2023-05-12T11:09:59.017Z,1.27
2023-05-12T11:12:32.251Z,1.70
2023-05-12T11:15:01.326Z,0.87
2023-05-12T11:17:29.074Z,1.60
2023-05-12T11:19:57.108Z,1.03
2023-05-12T11:22:25.434Z,1.27
2023-05-12T11:24:54.688Z,1.83
2023-05-12T11:27:24.010Z,1.50
2023-05-12T11:29:58.838Z,2.50
2023-05-12T11:32:26.898Z,1.20
2023-05-12T11:34:54.584Z,1.10
2023-05-12T11:37:22.956Z,2.07
2023-05-12T11:39:52.833Z,1.93
2023-05-12T11:42:24.407Z,1.83
2023-05-12T11:44:55.336Z,2.43
2023-05-12T11:47:23.007Z,1.43
2023-05-12T11:49:52.584Z,1.73
2023-05-12T11:52:22.157Z,1.97
2023-05-12T11:54:50.903Z,2.57
2023-05-12T11:57:31.704Z,1.87
2023-05-12T12:00:01.127Z,1.43
2023-05-12T12:02:29.505Z,0.63
2023-05-12T12:04:57.956Z,1.33
2023-05-12T12:07:31.303Z,0.90
2023-05-12T12:09:58.948Z,1.17
2023-05-12T12:12:26.733Z,1.40
2023-05-12T12:15:00.376Z,1.33
2023-05-12T12:17:30.834Z,1.13
2023-05-12T12:19:58.877Z,1.37
2023-05-12T12:22:26.891Z,0.83
2023-05-12T12:24:54.662Z,1.10
2023-05-12T12:27:22.266Z,1.57
2023-05-12T12:29:50.242Z,1.13
2023-05-12T12:32:19.611Z,1.30
2023-05-12T12:34:48.807Z,1.30
2023-05-12T12:37:17.058Z,1.73
2023-05-12T12:39:44.888Z,1.23
2023-05-12T12:42:13.311Z,1.00
2023-05-12T12:44:41.028Z,1.00
2023-05-12T12:47:08.729Z,1.03
2023-05-12T12:49:37.715Z,2.03
2023-05-12T12:52:05.975Z,0.63
2023-05-12T12:54:33.757Z,2.00
2023-05-12T12:57:01.502Z,1.03
2023-05-12T12:59:29.121Z,1.30
2023-05-12T13:01:59.940Z,1.13
2023-05-12T13:04:27.945Z,1.10
2023-05-12T13:06:57.033Z,1.20
2023-05-12T13:09:24.644Z,1.03
2023-05-12T13:11:52.910Z,1.43
2023-05-12T13:14:21.483Z,0.63
2023-05-12T13:16:49.232Z,1.10
2023-05-12T13:19:16.948Z,1.37
2023-05-12T13:21:44.883Z,1.20
2023-05-12T13:24:13.866Z,1.27
2023-05-12T13:26:41.478Z,1.00
2023-05-12T13:29:09.086Z,0.87
2023-05-12T13:31:38.616Z,1.20
2023-05-12T13:34:06.260Z,0.90
2023-05-12T13:36:34.667Z,0.67
2023-05-12T13:39:02.960Z,1.40
2023-05-12T13:41:32.194Z,1.77
2023-05-12T13:43:59.957Z,1.03
2023-05-12T13:46:27.556Z,1.53
2023-05-12T13:48:55.284Z,1.40
2023-05-12T13:51:23.559Z,0.40
2023-05-12T13:53:51.290Z,0.73
2023-05-12T13:56:19.508Z,1.73
2023-05-12T13:58:48.845Z,1.43
2023-05-12T14:01:16.959Z,2.23
2023-05-12T14:03:45.534Z,2.40
2023-05-12T14:06:13.336Z,2.10
2023-05-12T14:08:41.796Z,2.53
2023-05-12T14:11:09.995Z,2.53
2023-05-12T14:13:37.653Z,3.20
2023-05-12T14:16:07.647Z,2.47
2023-05-12T14:18:35.478Z,2.30
2023-05-12T14:21:03.382Z,3.30
2023-05-12T14:23:30.980Z,3.77
2023-05-12T14:25:59.332Z,4.03
2023-05-12T14:28:27.103Z,4.17
2023-05-12T14:30:54.991Z,4.43
2023-05-12T14:33:23.933Z,3.40
2023-05-12T14:36:03.040Z,3.87
2023-05-12T14:38:34.590Z,3.00
2023-05-12T14:41:02.239Z,3.80
2023-05-12T14:43:29.900Z,3.83
2023-05-12T14:45:57.858Z,3.07
2023-05-12T14:48:27.144Z,3.50
2023-05-12T14:50:55.510Z,3.83
2023-05-12T14:53:23.840Z,3.87
2023-05-12T14:55:51.559Z,3.70
2023-05-12T14:58:21.697Z,5.30
2023-05-12T15:00:51.299Z,4.33
2023-05-12T15:03:20.729Z,4.33
2023-05-12T15:08:21.731Z,4.80
2023-05-12T15:10:49.880Z,3.53
2023-05-12T15:13:20.160Z,4.63
2023-05-12T15:15:47.927Z,4.37
2023-05-12T15:18:16.137Z,4.77
2023-05-12T15:20:43.850Z,4.13
2023-05-12T15:23:13.152Z,4.87
2023-05-12T15:25:41.222Z,3.33
2023-05-12T15:28:09.485Z,4.37
2023-05-12T15:30:37.367Z,4.23
2023-05-12T15:33:06.170Z,3.43
2023-05-12T15:35:34.171Z,3.70
2023-05-12T15:38:01.905Z,6.97
2023-05-12T15:40:31.377Z,8.43
2023-05-12T15:42:59.134Z,7.43
2023-05-12T15:45:26.747Z,6.53
2023-05-12T15:47:54.376Z,10.07
2023-05-12T15:50:22.955Z,7.47
2023-05-12T15:52:51.116Z,6.77
2023-05-12T15:55:19.498Z,5.37
2023-05-12T15:57:48.889Z,3.60
2023-05-12T16:00:17.962Z,3.10
2023-05-12T16:02:45.662Z,3.23
2023-05-12T16:05:13.599Z,2.83
2023-05-12T16:07:41.357Z,3.03
2023-05-12T16:10:10.192Z,2.60
2023-05-12T16:12:37.801Z,2.70
2023-05-12T16:15:07.608Z,2.63
2023-05-12T16:17:35.482Z,2.27
2023-05-12T16:20:04.487Z,3.43
2023-05-12T16:22:32.253Z,3.10
2023-05-12T16:24:59.859Z,1.67
2023-05-12T16:27:28.066Z,1.90
2023-05-12T16:29:55.653Z,2.30
2023-05-12T16:32:24.643Z,2.33
2023-05-12T16:34:52.274Z,2.20
2023-05-12T16:37:19.886Z,2.20
2023-05-12T16:39:47.478Z,2.23
2023-05-12T16:42:15.483Z,1.90
2023-05-12T16:44:43.082Z,1.77
2023-05-12T16:47:11.106Z,2.33
2023-05-12T16:49:40.039Z,1.67
2023-05-12T16:52:09.463Z,2.00
2023-05-12T16:54:38.051Z,1.43
2023-05-12T16:57:06.089Z,3.27
2023-05-12T16:59:33.704Z,2.07
2023-05-12T17:02:01.960Z,1.90
2023-05-12T17:04:29.882Z,2.23
2023-05-12T17:06:59.175Z,1.80
2023-05-12T17:09:26.823Z,1.87
2023-05-12T17:11:54.433Z,2.30
2023-05-12T17:14:22.849Z,4.07
2023-05-12T17:16:50.443Z,3.47
2023-05-12T17:19:18.280Z,1.83
2023-05-12T17:21:46.028Z,1.87
2023-05-12T17:24:15.214Z,2.60
2023-05-12T17:26:42.996Z,2.23
2023-05-12T17:29:11.362Z,1.90
2023-05-12T17:31:39.494Z,2.63
2023-05-12T17:34:07.301Z,3.03
2023-05-12T17:36:34.934Z,1.80
2023-05-12T17:39:03.835Z,1.27
2023-05-12T17:41:35.842Z,2.30
2023-05-12T17:44:03.455Z,2.47
2023-05-12T17:46:31.140Z,1.63
2023-05-12T17:48:58.963Z,2.00
2023-05-12T17:51:26.874Z,2.30
2023-05-12T17:53:54.476Z,2.77
2023-05-12T17:56:22.559Z,2.03
2023-05-12T17:58:51.567Z,2.23
2023-05-12T18:01:19.436Z,3.00
2023-05-12T18:03:47.034Z,2.70
2023-05-12T18:06:15.607Z,1.90
2023-05-12T18:08:43.322Z,1.47
2023-05-12T18:11:11.372Z,1.87
2023-05-12T18:13:40.007Z,2.03
2023-05-12T18:16:18.244Z,2.50
2023-05-12T18:18:55.669Z,1.60
2023-05-12T18:21:23.532Z,2.30
2023-05-12T18:23:51.223Z,2.73
2023-05-12T18:26:18.890Z,1.83
2023-05-12T18:28:46.884Z,1.80
2023-05-12T18:31:19.216Z,2.00
2023-05-12T18:33:47.629Z,1.30
2023-05-12T18:36:15.451Z,1.67
2023-05-12T18:38:43.428Z,2.13
2023-05-12T18:41:11.179Z,2.37
2023-05-12T18:43:39.518Z,1.30
2023-05-12T18:46:07.215Z,2.07
2023-05-12T18:48:36.493Z,1.53
2023-05-12T18:51:04.496Z,1.50
2023-05-12T18:53:32.220Z,2.50
2023-05-12T18:55:59.885Z,1.97
2023-05-12T18:58:27.621Z,1.93
2023-05-12T19:00:55.569Z,1.23
2023-05-12T19:03:23.549Z,1.20
2023-05-12T19:05:52.517Z,1.77
2023-05-12T19:08:21.423Z,1.53
2023-05-12T19:10:50.733Z,1.57
2023-05-12T19:13:18.546Z,2.40
2023-05-12T19:15:46.680Z,2.27
2023-05-12T19:18:14.306Z,1.70
2023-05-12T19:20:42.507Z,1.90
2023-05-12T19:23:11.540Z,1.67
2023-05-12T19:25:39.304Z,1.53
2023-05-12T19:28:07.037Z,1.83
2023-05-12T19:30:35.370Z,1.70
2023-05-12T19:33:03.058Z,2.03
2023-05-12T19:35:30.969Z,1.90
2023-05-12T19:37:58.808Z,2.30
2023-05-12T19:40:30.864Z,2.00
2023-05-12T19:43:00.007Z,1.80
2023-05-12T19:45:30.762Z,3.43
2023-05-12T19:47:59.598Z,1.73
2023-05-12T19:50:29.536Z,1.50
2023-05-12T19:52:57.715Z,2.33
2023-05-12T19:55:25.347Z,2.93
2023-05-12T19:57:54.512Z,1.53
2023-05-12T20:00:22.470Z,1.57
2023-05-12T20:02:50.590Z,1.80
2023-05-12T20:05:18.800Z,2.20
2023-05-12T20:07:46.518Z,1.97
2023-05-12T20:10:14.105Z,2.37
2023-05-12T20:12:41.734Z,1.40
2023-05-12T20:15:11.654Z,1.73
2023-05-12T20:17:39.375Z,1.53
2023-05-12T20:20:10.901Z,2.17
2023-05-12T20:22:39.028Z,1.87
2023-05-12T20:25:07.495Z,2.13
2023-05-12T20:27:35.287Z,1.47
2023-05-12T20:30:02.901Z,2.20
2023-05-12T20:32:32.457Z,1.63
2023-05-12T20:35:00.171Z,1.50
2023-05-12T20:37:27.828Z,1.63
2023-05-12T20:39:55.697Z,1.90
2023-05-12T20:42:23.385Z,2.03
2023-05-12T20:44:50.993Z,1.50
2023-05-12T20:47:18.684Z,2.53
2023-05-12T20:49:48.288Z,2.33
2023-05-12T20:52:16.009Z,2.07
2023-05-12T20:54:43.620Z,1.57
2023-05-12T20:57:11.266Z,2.77
2023-05-12T20:59:38.872Z,1.60
2023-05-12T21:02:06.748Z,1.93
2023-05-12T21:04:34.417Z,1.67
2023-05-12T21:07:03.354Z,1.40
2023-05-12T21:09:30.994Z,1.70
2023-05-12T21:11:58.976Z,1.47
2023-05-12T21:14:26.895Z,2.73
2023-05-12T21:16:54.591Z,2.50
2023-05-12T21:19:22.569Z,2.33
2023-05-12T21:21:50.212Z,1.73
2023-05-12T21:24:19.288Z,1.57
2023-05-12T21:26:46.886Z,1.90
2023-05-12T21:29:14.762Z,2.33
2023-05-12T21:31:42.397Z,1.97
2023-05-12T21:34:10.482Z,2.57
2023-05-12T21:36:38.594Z,2.20
2023-05-12T21:39:06.238Z,1.57
2023-05-12T21:41:35.902Z,1.97
2023-05-12T21:44:03.825Z,2.37
2023-05-12T21:46:31.556Z,1.80
2023-05-12T21:48:59.254Z,3.33
2023-05-12T21:51:27.101Z,2.50
2023-05-12T21:53:55.257Z,2.23
2023-05-12T21:56:23.195Z,1.63
2023-05-12T21:58:52.220Z,2.17
2023-05-12T22:01:20.162Z,2.20
2023-05-12T22:03:47.931Z,2.17
2023-05-12T22:06:15.794Z,1.93
2023-05-12T22:08:43.526Z,1.70
2023-05-12T22:11:12.174Z,2.27
2023-05-12T22:13:39.759Z,1.70
2023-05-12T22:16:08.970Z,1.80
2023-05-12T22:18:37.897Z,3.50
2023-05-12T22:21:06.506Z,2.40
2023-05-12T22:23:35.157Z,2.67
2023-05-12T22:26:04.964Z,2.13
2023-05-12T22:28:33.595Z,2.33
2023-05-12T22:31:01.435Z,2.23
2023-05-12T22:33:31.028Z,3.07
2023-05-12T22:35:59.270Z,2.10
2023-05-12T22:38:26.916Z,3.80
2023-05-12T22:40:54.825Z,2.80
2023-05-12T22:43:22.710Z,3.30
2023-05-12T22:45:51.801Z,3.40
2023-05-12T22:48:19.806Z,3.07
2023-05-12T22:50:49.199Z,3.50
2023-05-12T22:53:17.043Z,3.33
2023-05-12T22:55:44.637Z,3.90
2023-05-12T22:58:12.374Z,3.17
2023-05-12T23:00:40.093Z,2.73
2023-05-12T23:03:08.154Z,3.43
2023-05-12T23:05:35.903Z,3.20
2023-05-12T23:08:04.946Z,3.03
2023-05-12T23:10:32.712Z,2.83
2023-05-12T23:13:00.425Z,3.00
2023-05-12T23:15:28.041Z,4.57
2023-05-12T23:17:55.977Z,3.13
2023-05-12T23:20:24.123Z,2.50
2023-05-12T23:22:51.786Z,2.90
2023-05-12T23:25:21.058Z,3.70
2023-05-12T23:27:48.659Z,3.03
2023-05-12T23:30:16.486Z,2.97
2023-05-12T23:32:44.230Z,2.83
2023-05-12T23:35:11.962Z,2.47
2023-05-12T23:37:39.606Z,2.50
2023-05-12T23:40:08.816Z,2.90
2023-05-12T23:42:37.786Z,2.77
2023-05-12T23:45:06.457Z,2.60
2023-05-12T23:47:34.207Z,2.37
2023-05-12T23:50:01.897Z,2.80
2023-05-12T23:52:29.581Z,3.43
2023-05-12T23:54:57.345Z,2.93
2023-05-12T23:57:25.131Z,2.93
2023-05-12T23:59:54.110Z,3.07
